createdAt,value
2022-11-20T09:36:24.533Z,5.00
2022-11-20T09:38:27.266Z,5.00
2022-11-20T09:40:31.000Z,4.75
2022-11-20T09:42:44.655Z,3.50
2022-11-20T09:45:17.505Z,2.00
2022-11-20T09:47:33.653Z,5.75
2022-11-20T09:49:51.264Z,5.00
2022-11-20T09:52:00.066Z,6.00
2022-11-20T09:54:15.811Z,5.00
2022-11-20T09:56:22.563Z,4.75
2022-11-20T09:58:33.247Z,3.00
2022-11-20T10:00:38.915Z,3.00
2022-11-20T10:02:46.689Z,3.75
2022-11-20T10:05:01.932Z,5.25
2022-11-20T10:07:31.467Z,3.00
2022-11-20T10:09:36.587Z,4.00
2022-11-20T10:11:48.955Z,2.00
2022-11-20T10:14:05.491Z,4.00
2022-11-20T10:16:24.123Z,3.00
2022-11-20T10:18:45.135Z,4.75
2022-11-20T10:20:56.434Z,4.00
2022-11-20T10:23:24.317Z,5.00
2022-11-20T10:25:39.901Z,3.00
2022-11-20T10:28:08.592Z,5.25
2022-11-20T10:30:14.180Z,4.00
2022-11-20T10:32:21.078Z,3.00
2022-11-20T10:34:28.568Z,3.00
2022-11-20T10:36:37.307Z,6.00
2022-11-20T10:38:45.075Z,3.00
2022-11-20T10:40:52.971Z,3.50
2022-11-20T10:42:59.102Z,2.75
2022-11-20T10:45:16.294Z,3.00
2022-11-20T10:47:22.066Z,4.00
2022-11-20T10:49:25.032Z,3.00
2022-11-20T10:51:39.548Z,3.00
2022-11-20T10:53:52.967Z,2.50
2022-11-20T10:56:01.227Z,3.25
2022-11-20T10:58:12.437Z,4.50
2022-11-20T11:00:17.893Z,5.00
2022-11-20T11:02:22.893Z,5.50
2022-11-20T11:04:39.160Z,4.00
2022-11-20T11:06:49.609Z,2.00
2022-11-20T11:08:57.412Z,2.75
2022-11-20T11:11:04.839Z,3.00
2022-11-20T11:13:07.537Z,2.50
2022-11-20T11:15:16.442Z,2.00
2022-11-20T11:17:27.785Z,3.00
2022-11-20T11:19:30.577Z,3.00
2022-11-20T11:21:33.390Z,2.75
2022-11-20T11:23:38.314Z,2.75
2022-11-20T11:25:42.435Z,4.00
2022-11-20T11:27:48.895Z,4.00
2022-11-20T11:29:51.861Z,4.00
2022-11-20T11:32:06.570Z,4.00
2022-11-20T11:34:13.594Z,2.00
2022-11-20T11:36:21.971Z,2.25
2022-11-20T11:38:31.823Z,3.00
2022-11-20T11:40:36.819Z,4.00
2022-11-20T11:42:46.306Z,2.00
2022-11-20T11:45:07.436Z,3.00
2022-11-20T11:47:20.554Z,3.25
2022-11-20T11:49:23.697Z,3.00
2022-11-20T11:51:31.870Z,2.00
2022-11-20T11:53:41.362Z,2.50
2022-11-20T11:55:47.840Z,3.00
2022-11-20T11:57:57.706Z,3.00
2022-11-20T12:00:06.422Z,2.00
2022-11-20T12:02:31.792Z,4.00
2022-11-20T12:04:45.633Z,3.75
2022-11-20T12:06:53.825Z,2.75
2022-11-20T12:09:01.303Z,4.00
2022-11-20T12:11:08.557Z,3.00
2022-11-20T12:13:23.246Z,3.75
2022-11-20T12:15:31.785Z,3.50
2022-11-20T12:17:34.793Z,4.00
2022-11-20T12:19:37.666Z,2.75
2022-11-20T12:21:50.915Z,2.00
2022-11-20T12:24:07.900Z,2.00
2022-11-20T12:26:21.872Z,2.00
2022-11-20T12:28:46.363Z,3.00
2022-11-20T12:31:01.598Z,2.00
2022-11-20T12:33:25.598Z,3.00
2022-11-20T12:35:46.774Z,3.00
2022-11-20T12:37:59.657Z,3.00
2022-11-20T12:40:14.294Z,2.00
2022-11-20T12:42:56.201Z,2.00
2022-11-20T12:47:25.658Z,3.00
2022-11-20T12:49:40.023Z,3.00
2022-11-20T12:52:12.785Z,2.00
2022-11-20T12:54:36.309Z,4.00
2022-11-20T12:56:45.383Z,2.33
2022-11-20T12:59:02.362Z,2.00
2022-11-20T13:01:36.584Z,4.00
2022-11-20T13:03:48.572Z,3.50
2022-11-20T13:05:58.907Z,2.00
2022-11-20T13:08:04.318Z,4.00
2022-11-20T13:10:18.543Z,6.00
2022-11-20T13:14:38.637Z,4.00
2022-11-20T13:16:50.604Z,3.00
2022-11-20T13:18:53.569Z,4.00
2022-11-20T13:20:56.351Z,4.00
2022-11-20T13:22:59.734Z,3.00
2022-11-20T13:25:02.783Z,2.75
2022-11-20T13:27:24.168Z,1.00
2022-11-20T13:29:27.139Z,3.00
2022-11-20T13:31:33.698Z,3.00
2022-11-20T13:33:39.749Z,3.00
2022-11-20T13:35:44.289Z,2.50
2022-11-20T13:37:47.103Z,4.00
2022-11-20T13:39:50.071Z,3.00
2022-11-20T13:41:57.105Z,3.00
2022-11-20T13:44:09.076Z,4.00
2022-11-20T13:46:12.379Z,2.00
2022-11-20T13:48:23.632Z,4.00
2022-11-20T13:50:42.629Z,6.50
2022-11-20T13:52:56.575Z,6.75
2022-11-20T13:55:14.241Z,2.50
2022-11-20T13:57:37.288Z,2.50
2022-11-20T13:59:55.074Z,2.00
2022-11-20T14:01:58.114Z,3.00
2022-11-20T14:04:08.336Z,5.00
2022-11-20T14:06:22.494Z,3.00
2022-11-20T14:08:30.516Z,3.00
2022-11-20T14:10:34.349Z,4.50
2022-11-20T14:12:37.921Z,2.25
2022-11-20T14:14:50.362Z,2.00
2022-11-20T14:16:53.941Z,3.00
2022-11-20T14:18:57.928Z,3.00
2022-11-20T14:21:04.764Z,3.00
2022-11-20T14:23:12.125Z,2.00
2022-11-20T14:25:24.178Z,3.00
2022-11-20T14:27:27.036Z,2.00
2022-11-20T14:29:35.273Z,2.25
2022-11-20T14:31:38.135Z,2.00
2022-11-20T14:33:40.926Z,2.00
2022-11-20T14:35:47.531Z,2.00
2022-11-20T14:37:50.448Z,2.00
2022-11-20T14:39:56.865Z,2.00
2022-11-20T14:41:59.753Z,2.00
2022-11-20T14:44:03.726Z,3.00
2022-11-20T14:46:09.590Z,3.50
2022-11-20T14:48:13.008Z,2.75
2022-11-20T14:50:20.557Z,2.00
2022-11-20T14:52:25.381Z,2.00
2022-11-20T14:54:29.200Z,3.00
2022-11-20T14:56:33.391Z,3.00
2022-11-20T14:58:36.178Z,2.75
2022-11-20T15:00:38.826Z,4.25
2022-11-20T15:02:43.335Z,2.50
2022-11-20T15:04:47.574Z,2.25
2022-11-20T15:06:53.167Z,2.00
2022-11-20T15:08:55.933Z,2.00
2022-11-20T15:10:59.346Z,4.00
2022-11-20T15:13:12.382Z,3.00
2022-11-20T15:15:21.336Z,2.67
2022-11-20T15:17:24.409Z,3.00
2022-11-20T15:19:28.578Z,2.00
2022-11-20T15:21:31.417Z,4.25
2022-11-20T15:23:34.309Z,3.25
2022-11-20T15:25:36.957Z,2.00
2022-11-20T15:27:39.831Z,3.00
2022-11-20T15:29:44.406Z,2.00
2022-11-20T15:31:47.208Z,2.00
2022-11-20T15:33:50.137Z,2.00
2022-11-20T15:35:52.858Z,2.00
2022-11-20T15:37:55.685Z,2.00
2022-11-20T15:39:58.741Z,2.00
2022-11-20T15:42:01.442Z,2.50
2022-11-20T15:44:04.837Z,2.75
2022-11-20T15:46:13.454Z,2.00
2022-11-20T15:48:18.770Z,2.00
2022-11-20T15:50:22.476Z,4.00
2022-11-20T15:52:25.291Z,3.00
2022-11-20T15:54:27.932Z,3.00
2022-11-20T15:56:30.614Z,6.75
2022-11-20T15:58:33.538Z,6.00
2022-11-20T16:00:36.335Z,3.00
2022-11-20T16:02:40.425Z,3.00
2022-11-20T16:04:43.655Z,3.75
2022-11-20T16:06:46.563Z,2.00
2022-11-20T16:08:49.303Z,3.00
2022-11-20T16:10:52.002Z,3.00
2022-11-20T16:13:12.072Z,3.00
2022-11-20T16:15:32.676Z,3.00
2022-11-20T16:17:44.400Z,3.00
2022-11-20T16:19:48.408Z,3.25
2022-11-20T16:21:52.304Z,2.00
2022-11-20T16:23:55.476Z,3.00
2022-11-20T16:25:58.256Z,2.50
2022-11-20T16:28:01.695Z,7.50
2022-11-20T16:30:04.693Z,6.25
2022-11-20T16:32:07.357Z,3.00
2022-11-20T16:34:12.545Z,2.00
2022-11-20T16:36:17.252Z,3.00
2022-11-20T16:38:19.957Z,2.00
2022-11-20T16:40:22.900Z,2.00
2022-11-20T16:42:26.047Z,3.00
2022-11-20T16:44:28.877Z,2.00
2022-11-20T16:46:33.355Z,2.75
2022-11-20T16:48:36.254Z,4.00
2022-11-20T16:50:38.989Z,2.00
2022-11-20T16:52:43.057Z,2.00
2022-11-20T16:54:45.786Z,2.00
2022-11-20T16:56:48.586Z,4.00
2022-11-20T16:58:51.983Z,2.00
2022-11-20T17:00:54.776Z,3.00
2022-11-20T17:02:57.483Z,2.50
2022-11-20T17:05:00.105Z,2.00
2022-11-20T17:07:07.837Z,2.00
2022-11-20T17:09:12.928Z,3.75
2022-11-20T17:11:17.929Z,2.00
2022-11-20T17:13:20.734Z,2.00
2022-11-20T17:15:23.376Z,2.75
2022-11-20T17:17:26.130Z,3.00
2022-11-20T17:19:29.045Z,4.00
2022-11-20T17:21:32.222Z,4.50
2022-11-20T17:23:36.636Z,4.00
2022-11-20T17:25:40.838Z,3.00
2022-11-20T17:27:43.600Z,4.00
2022-11-20T17:29:46.594Z,4.00
2022-11-20T17:31:50.070Z,2.25
2022-11-20T17:33:53.433Z,3.25
2022-11-20T17:35:56.866Z,2.00
2022-11-20T17:37:59.606Z,5.00
2022-11-20T17:40:02.306Z,2.00
2022-11-20T17:42:23.931Z,2.25
2022-11-20T17:44:26.755Z,4.00
2022-11-20T17:46:33.408Z,4.00
2022-11-20T17:48:37.052Z,3.50
2022-11-20T17:50:39.873Z,2.50
2022-11-20T17:52:42.654Z,4.00
2022-11-20T17:54:45.429Z,2.33
2022-11-20T17:57:05.805Z,2.00
2022-11-20T17:59:11.773Z,4.75
2022-11-20T18:01:15.095Z,6.00
2022-11-20T18:03:17.910Z,3.00
2022-11-20T18:05:20.674Z,4.00
2022-11-20T18:07:23.486Z,4.00
2022-11-20T18:09:26.392Z,4.00
2022-11-20T18:11:30.783Z,4.00
2022-11-20T18:16:08.452Z,6.00
2022-11-20T18:18:11.242Z,4.25
2022-11-20T18:20:33.001Z,8.75
2022-11-20T18:22:36.843Z,6.75
2022-11-20T18:24:40.353Z,4.00
2022-11-20T18:26:44.610Z,3.50
2022-11-20T18:28:48.304Z,4.00
2022-11-20T18:30:51.154Z,3.00
2022-11-20T18:32:55.725Z,5.25
2022-11-20T18:34:58.539Z,8.50
2022-11-20T18:37:01.293Z,5.00
2022-11-20T18:39:04.567Z,6.33
2022-11-20T18:41:07.793Z,4.50
2022-11-20T18:43:29.473Z,9.50
2022-11-20T18:45:32.239Z,15.00
2022-11-20T18:47:37.973Z,7.00
2022-11-20T18:49:42.320Z,3.50
2022-11-20T18:51:45.551Z,3.33
2022-11-20T18:53:48.515Z,3.00
2022-11-20T18:55:51.513Z,3.00
2022-11-20T18:57:55.100Z,3.00
2022-11-20T19:00:06.485Z,3.00
2022-11-20T19:02:12.320Z,2.50
2022-11-20T19:04:17.447Z,3.00
2022-11-20T19:06:22.044Z,5.00
2022-11-20T19:08:24.894Z,6.00
2022-11-20T19:10:28.040Z,5.00
2022-11-20T19:12:34.284Z,3.75
2022-11-20T19:14:37.042Z,5.75
2022-11-20T19:16:39.731Z,14.00
2022-11-20T19:18:43.662Z,4.00
2022-11-20T19:20:46.671Z,3.00
2022-11-20T19:22:53.538Z,4.00
2022-11-20T19:24:56.197Z,2.00
2022-11-20T19:29:01.452Z,5.67
2022-11-20T19:31:05.282Z,4.50
2022-11-20T19:33:08.139Z,3.00
2022-11-20T19:35:10.801Z,3.00
2022-11-20T19:37:13.469Z,3.00
2022-11-20T19:39:18.000Z,3.00
2022-11-20T19:41:22.175Z,4.50
2022-11-20T19:43:25.080Z,4.50
2022-11-20T19:45:27.936Z,8.50
2022-11-20T19:48:00.553Z,11.00
2022-11-20T19:49:53.558Z,10.00
2022-11-20T19:51:56.343Z,3.25
2022-11-20T19:54:00.087Z,3.33
2022-11-20T19:56:04.289Z,3.00
2022-11-20T19:58:07.454Z,4.00
2022-11-20T20:00:12.340Z,2.75
2022-11-20T20:02:17.921Z,5.00
2022-11-20T20:04:20.797Z,6.75
2022-11-20T20:06:25.042Z,6.25
2022-11-20T20:08:28.169Z,6.50
2022-11-20T20:10:30.870Z,11.50
2022-11-20T20:12:34.942Z,5.25
2022-11-20T20:14:37.768Z,19.75
2022-11-20T20:16:40.541Z,3.00
2022-11-20T20:18:43.792Z,3.75
2022-11-20T20:20:46.577Z,2.00
2022-11-20T20:22:49.588Z,2.00
2022-11-20T20:24:52.908Z,2.00
2022-11-20T20:26:58.315Z,2.50
2022-11-20T20:29:03.008Z,3.00
2022-11-20T20:31:07.875Z,4.00
2022-11-20T20:33:10.638Z,5.50
2022-11-20T20:35:13.527Z,3.00
2022-11-20T20:37:16.304Z,2.00
2022-11-20T20:39:22.084Z,3.00
2022-11-20T20:41:26.701Z,8.00
2022-11-20T20:43:29.450Z,10.75
2022-11-20T20:45:32.519Z,6.00
2022-11-20T20:47:36.792Z,7.75
2022-11-20T20:49:43.142Z,3.75
2022-11-20T20:51:45.846Z,10.75
2022-11-20T20:53:49.988Z,5.00
2022-11-20T20:55:56.355Z,6.00
2022-11-20T20:57:59.229Z,8.00
2022-11-20T21:00:02.122Z,8.25
2022-11-20T21:02:06.408Z,7.00
2022-11-20T21:04:09.238Z,6.25
2022-11-20T21:06:12.863Z,9.00
2022-11-20T21:08:24.958Z,9.50
2022-11-20T21:10:27.922Z,7.75
2022-11-20T21:12:30.740Z,11.33
2022-11-20T21:14:33.515Z,6.75
2022-11-20T21:16:41.090Z,6.00
2022-11-20T21:18:45.367Z,4.00
2022-11-20T21:21:06.042Z,3.00
2022-11-20T21:23:12.103Z,7.75
2022-11-20T21:25:14.942Z,4.25
2022-11-20T21:27:17.664Z,4.00
2022-11-20T21:33:27.322Z,12.75
2022-11-20T21:35:34.614Z,53.00
2022-11-20T21:37:40.917Z,52.50
2022-11-20T21:39:50.672Z,43.00
2022-11-20T21:41:53.444Z,50.00
2022-11-20T21:44:41.019Z,50.50
2022-11-20T21:46:19.463Z,9.33
2022-11-20T21:48:22.322Z,20.00
2022-11-20T21:50:25.058Z,15.25
2022-11-20T21:52:29.210Z,25.67
2022-11-20T21:54:31.842Z,17.00
2022-11-20T21:56:34.489Z,14.00
2022-11-20T21:58:38.616Z,23.00
2022-11-20T22:00:41.717Z,17.75
2022-11-20T22:02:44.431Z,21.75
2022-11-20T22:04:47.151Z,22.75
2022-11-20T22:06:49.817Z,17.50
2022-11-20T22:08:53.914Z,15.00
2022-11-20T22:10:58.093Z,15.25
